Time;durP1;ratioP1;P1;durP2;ratioP2;P2;SDS_P1;SDS_P2;PMS_P1;PMS_P2;Temp;Humidity;BMP_temperature;BMP_pressure;BME280_temperature;BME280_humidity;BME280_pressure;Samples;Min_cycle;Max_cycle;Signal;HPM_P1;HPM_P2
2023/10/28 00:02:00;;;;;;;4.82;2.88;;;359.10;2329.60;;;;;;5033923;28;20028;-67
2023/10/28 00:04:26;;;;;;;4.82;3.03;;;359.10;2329.60;;;;;;5050106;28;20025;-75
2023/10/28 00:06:52;;;;;;;7.80;3.53;;;359.10;2329.60;;;;;;5048212;28;20600;-73
2023/10/28 00:09:20;;;;;;;4.35;3.05;;;359.10;2329.60;;;;;;5049133;28;20108;-62
2023/10/28 00:11:46;;;;;;;8.48;3.65;;;359.10;2329.60;;;;;;5052813;28;20421;-75
2023/10/28 00:14:14;;;;;;;6.55;3.67;;;359.10;2329.60;;;;;;5052287;28;20009;-73
2023/10/28 00:16:40;;;;;;;4.30;2.20;;;359.00;2329.60;;;;;;5051866;28;20092;-70
2023/10/28 00:19:07;;;;;;;10.48;2.35;;;359.10;2329.60;;;;;;5052495;28;20037;-70
2023/10/28 00:21:34;;;;;;;7.03;2.85;;;359.10;2329.60;;;;;;5051861;28;20055;-76
2023/10/28 00:24:01;;;;;;;5.57;2.80;;;359.00;2329.60;;;;;;5044043;28;20422;-67
2023/10/28 00:26:27;;;;;;;5.68;2.78;;;359.00;2329.60;;;;;;5034495;28;20037;-62
2023/10/28 00:28:53;;;;;;;5.63;3.47;;;359.00;2329.60;;;;;;5052430;28;20017;-75
2023/10/28 00:31:21;;;;;;;4.40;3.20;;;358.90;2329.60;;;;;;5042211;28;20068;-60
2023/10/28 00:33:49;;;;;;;6.32;3.00;;;358.90;2329.60;;;;;;5033523;28;20025;-64
2023/10/28 00:36:15;;;;;;;3.67;2.50;;;358.90;2329.60;;;;;;5051822;28;20052;-73
2023/10/28 00:38:41;;;;;;;7.72;3.03;;;358.80;2329.60;;;;;;5052224;28;20033;-67
2023/10/28 00:41:06;;;;;;;5.43;2.30;;;358.80;2329.60;;;;;;5052604;28;20028;-73
2023/10/28 00:43:32;;;;;;;7.40;2.60;;;358.90;2329.60;;;;;;5052042;28;20032;-73
2023/10/28 00:45:59;;;;;;;6.68;3.45;;;358.90;2329.60;;;;;;5051988;28;20032;-70
2023/10/28 00:48:26;;;;;;;6.88;3.25;;;358.80;2329.60;;;;;;5051905;28;20013;-70
2023/10/28 00:50:54;;;;;;;5.57;3.10;;;358.80;2329.60;;;;;;5051903;28;20021;-59
2023/10/28 00:53:23;;;;;;;4.60;2.85;;;358.80;2329.60;;;;;;5052618;28;20657;-59
2023/10/28 00:55:51;;;;;;;7.05;3.25;;;358.70;2329.60;;;;;;5052095;28;20021;-60
2023/10/28 00:58:20;;;;;;;5.15;3.42;;;358.70;2329.60;;;;;;5051887;28;20021;-59
2023/10/28 01:00:46;;;;;;;6.32;2.88;;;358.70;2329.60;;;;;;5051779;28;20037;-74
2023/10/28 01:03:13;;;;;;;11.77;2.80;;;358.70;2329.60;;;;;;5048211;28;20162;-58
2023/10/28 01:05:39;;;;;;;6.75;2.47;;;358.70;2329.60;;;;;;5027098;28;20078;-60
2023/10/28 01:08:04;;;;;;;4.18;3.00;;;358.70;2329.60;;;;;;5044189;28;20424;-74
2023/10/28 01:10:33;;;;;;;5.15;2.60;;;358.60;2329.60;;;;;;5051033;28;20025;-64
2023/10/28 01:12:59;;;;;;;8.38;2.95;;;358.70;2329.60;;;;;;5051464;28;20036;-60
2023/10/28 01:15:26;;;;;;;83.95;36.22;;;358.70;2329.60;;;;;;5051683;28;20017;-74
2023/10/28 01:17:52;;;;;;;30.92;14.13;;;358.70;2329.60;;;;;;5051405;28;20025;-68
2023/10/28 01:20:18;;;;;;;27.52;13.82;;;358.70;2329.60;;;;;;5050578;28;20480;-74
2023/10/28 01:22:43;;;;;;;6.88;4.10;;;358.50;2329.60;;;;;;5051293;28;20116;-59
2023/10/28 01:25:09;;;;;;;8.35;4.03;;;358.40;2329.60;;;;;;5051043;28;20029;-69
2023/10/28 01:27:36;;;;;;;84.68;37.67;;;358.50;2329.60;;;;;;5049758;28;20029;-58
2023/10/28 01:30:03;;;;;;;22.45;11.18;;;358.50;2329.60;;;;;;5050676;28;20530;-58
2023/10/28 01:32:28;;;;;;;9.82;4.35;;;358.40;2329.60;;;;;;5051539;28;20102;-62
2023/10/28 01:34:54;;;;;;;7.47;2.97;;;358.40;2329.60;;;;;;5045994;28;20463;-59
2023/10/28 01:37:21;;;;;;;3.20;2.22;;;333.70;2329.60;;;;;;5034181;28;20449;-58
2023/10/28 01:39:54;;;;;;;61.28;35.85;;;333.70;2329.60;;;;;;5051384;28;20035;-65
2023/10/28 01:42:21;;;;;;;28.42;14.00;;;333.70;2329.60;;;;;;5050089;28;20395;-58
2023/10/28 01:44:48;;;;;;;5.18;3.20;;;333.70;2329.60;;;;;;5037924;28;20037;-73
2023/10/28 01:47:15;;;;;;;9.40;2.65;;;333.60;2329.60;;;;;;5051135;28;20395;-72
2023/10/28 01:49:44;;;;;;;6.45;2.58;;;333.60;2329.60;;;;;;5050827;28;20059;-70
2023/10/28 01:52:11;;;;;;;6.43;2.85;;;333.60;2329.60;;;;;;5050308;28;20029;-64
2023/10/28 01:54:37;;;;;;;5.78;2.63;;;333.50;2329.60;;;;;;5051126;28;20092;-58
2023/10/28 01:57:07;;;;;;;5.05;3.05;;;333.50;2329.60;;;;;;5050733;28;20098;-60
2023/10/28 01:59:37;;;;;;;8.30;3.25;;;333.40;2329.60;;;;;;5044489;28;20369;-72
2023/10/28 02:02:04;;;;;;;9.52;3.40;;;333.40;2329.60;;;;;;5046790;28;20025;-60
2023/10/28 02:04:30;;;;;;;8.20;3.47;;;333.40;2329.60;;;;;;5050121;28;20104;-59
2023/10/28 02:06:57;;;;;;;6.10;2.80;;;333.40;2329.60;;;;;;5050605;28;20037;-63
2023/10/28 02:09:23;;;;;;;7.43;3.70;;;333.40;2329.60;;;;;;5050425;28;20593;-58
2023/10/28 02:11:52;;;;;;;5.35;3.30;;;333.40;2329.60;;;;;;5050156;28;20100;-60
2023/10/28 02:14:18;;;;;;;4.60;3.08;;;333.30;2329.60;;;;;;5026305;28;20029;-74
2023/10/28 02:16:44;;;;;;;26.33;17.27;;;333.30;2329.60;;;;;;5045169;28;20391;-74
2023/10/28 02:19:10;;;;;;;7.25;3.80;;;333.30;2329.60;;;;;;5049728;28;20045;-63
2023/10/28 02:21:36;;;;;;;6.15;3.03;;;333.30;2329.60;;;;;;5050327;28;20029;-74
2023/10/28 02:24:04;;;;;;;4.93;2.78;;;333.20;2329.60;;;;;;5050071;28;20017;-73
2023/10/28 02:26:30;;;;;;;7.25;2.95;;;333.20;2329.60;;;;;;5049717;28;20115;-75
2023/10/28 02:28:56;;;;;;;7.22;3.60;;;333.20;2329.60;;;;;;5049705;28;20115;-75
2023/10/28 02:31:23;;;;;;;6.88;3.50;;;333.20;2329.60;;;;;;5049702;28;20041;-74
2023/10/28 02:33:49;;;;;;;6.30;3.33;;;333.20;2329.60;;;;;;5049319;28;20108;-64
2023/10/28 02:36:15;;;;;;;6.85;3.33;;;333.30;2329.60;;;;;;5049480;28;20025;-59
2023/10/28 02:38:40;;;;;;;6.13;2.78;;;333.30;2329.60;;;;;;5049719;28;20079;-75
2023/10/28 02:41:07;;;;;;;13.20;3.15;;;333.20;2329.60;;;;;;5049652;28;20017;-64
2023/10/28 02:43:35;;;;;;;8.18;5.43;;;333.30;2329.60;;;;;;5033964;28;20030;-74
2023/10/28 02:46:03;;;;;;;5.65;3.72;;;333.20;2329.60;;;;;;5032736;28;20091;-74
2023/10/28 02:48:29;;;;;;;7.00;3.42;;;333.20;2329.60;;;;;;5049561;28;20025;-62
2023/10/28 02:50:55;;;;;;;7.15;3.50;;;333.20;2329.60;;;;;;5049235;28;20025;-75
2023/10/28 02:53:20;;;;;;;14.07;8.02;;;333.20;2329.60;;;;;;5049967;28;20043;-69
2023/10/28 02:55:46;;;;;;;7.60;4.78;;;333.10;2329.60;;;;;;5049733;28;20082;-72
2023/10/28 02:58:12;;;;;;;12.48;4.82;;;332.90;2329.60;;;;;;5049314;28;20028;-70
2023/10/28 03:00:38;;;;;;;7.85;5.28;;;332.90;2329.60;;;;;;5049316;28;20025;-77
2023/10/28 03:03:03;;;;;;;5.68;4.15;;;332.90;2329.60;;;;;;5049094;28;20116;-72
2023/10/28 03:05:29;;;;;;;10.30;3.72;;;332.90;2329.60;;;;;;5049069;28;20029;-60
2023/10/28 03:07:55;;;;;;;6.05;4.10;;;332.80;2329.60;;;;;;5049808;28;20108;-72
2023/10/28 03:10:21;;;;;;;8.38;4.15;;;308.10;2304.00;;;;;;5049311;28;20163;-60
2023/10/28 03:12:47;;;;;;;6.47;4.10;;;308.10;2304.00;;;;;;5049641;28;20505;-73
2023/10/28 03:15:13;;;;;;;11.27;4.60;;;308.10;2304.00;;;;;;5049127;28;20047;-73
2023/10/28 03:17:39;;;;;;;6.03;3.25;;;308.10;2304.00;;;;;;5049456;28;20139;-64
2023/10/28 03:20:08;;;;;;;81.20;50.50;;;308.10;2304.00;;;;;;5041369;28;20045;-72
2023/10/28 03:22:35;;;;;;;34.50;20.92;;;308.10;2304.00;;;;;;5029344;28;20025;-68
2023/10/28 03:25:02;;;;;;;11.25;5.90;;;308.10;2304.00;;;;;;5047178;28;20017;-61
2023/10/28 03:27:29;;;;;;;6.53;4.15;;;308.10;2304.00;;;;;;5049366;28;20336;-74
2023/10/28 03:29:55;;;;;;;6.60;4.65;;;308.00;2304.00;;;;;;5049102;28;20033;-74
2023/10/28 03:32:20;;;;;;;6.00;3.65;;;308.00;2304.00;;;;;;5037323;28;20124;-73
2023/10/28 03:34:47;;;;;;;6.15;3.80;;;308.00;2304.00;;;;;;5047841;28;20021;-75
2023/10/28 03:37:12;;;;;;;5.07;3.42;;;308.00;2304.00;;;;;;5048912;28;20044;-75
2023/10/28 03:39:38;;;;;;;7.78;3.67;;;308.00;2304.00;;;;;;5048516;28;20487;-73
2023/10/28 03:42:07;;;;;;;8.07;3.50;;;307.90;2304.00;;;;;;5048980;28;20068;-75
2023/10/28 03:44:34;;;;;;;6.78;3.47;;;307.90;2304.00;;;;;;5051244;28;20033;-76
2023/10/28 03:47:00;;;;;;;6.75;3.92;;;307.80;2304.00;;;;;;5053169;28;20082;-61
2023/10/28 03:49:27;;;;;;;9.55;3.78;;;307.80;2304.00;;;;;;5052700;28;20067;-76
2023/10/28 03:51:53;;;;;;;6.45;4.65;;;307.80;2304.00;;;;;;5034431;28;20105;-75
2023/10/28 03:54:18;;;;;;;9.20;3.60;;;307.70;2304.00;;;;;;5040524;28;20113;-67
2023/10/28 03:56:44;;;;;;;5.25;3.35;;;307.70;2304.00;;;;;;5044839;28;20479;-72
2023/10/28 03:59:10;;;;;;;6.63;3.38;;;307.60;2304.00;;;;;;5052855;28;20017;-62
2023/10/28 04:01:35;;;;;;;4.82;3.13;;;307.60;2304.00;;;;;;5053014;28;20048;-73
2023/10/28 04:04:01;;;;;;;5.93;3.15;;;307.60;2304.00;;;;;;5052183;28;20111;-70
2023/10/28 04:06:27;;;;;;;5.75;3.58;;;307.60;2304.00;;;;;;5052632;28;20091;-74
2023/10/28 04:08:53;;;;;;;6.47;3.08;;;307.50;2304.00;;;;;;5052295;28;20078;-58
2023/10/28 04:11:18;;;;;;;7.13;3.35;;;307.30;2304.00;;;;;;5053021;28;20031;-70
2023/10/28 04:13:44;;;;;;;6.13;3.47;;;307.40;2304.00;;;;;;5052487;28;20028;-59
2023/10/28 04:16:10;;;;;;;6.28;3.40;;;307.20;2176.00;;;;;;5052711;28;20037;-59
2023/10/28 04:18:35;;;;;;;4.18;2.78;;;307.20;2304.00;;;;;;5051719;28;20025;-74
2023/10/28 04:21:01;;;;;;;7.65;3.78;;;307.30;2304.00;;;;;;5052393;28;20037;-69
2023/10/28 04:23:27;;;;;;;9.82;4.32;;;307.30;2304.00;;;;;;5031072;28;20022;-63
2023/10/28 04:25:53;;;;;;;7.60;3.20;;;307.30;2304.00;;;;;;5033515;28;20037;-74
2023/10/28 04:28:19;;;;;;;6.28;3.28;;;307.30;2304.00;;;;;;5050822;28;20840;-60
2023/10/28 04:30:55;;;;;;;10.40;4.80;;;307.30;2304.00;;;;;;5052256;28;20037;-75
2023/10/28 04:33:21;;;;;;;10.93;6.38;;;282.50;2278.40;;;;;;5051949;28;20017;-63
2023/10/28 04:35:47;;;;;;;11.07;7.82;;;282.40;2278.40;;;;;;5052284;28;20025;-76
2023/10/28 04:38:12;;;;;;;12.05;6.80;;;282.30;2278.40;;;;;;5052079;28;20459;-64
2023/10/28 04:40:38;;;;;;;8.75;5.30;;;282.40;2278.40;;;;;;5052255;28;20242;-75
2023/10/28 04:43:04;;;;;;;10.05;5.32;;;282.40;2278.40;;;;;;5052430;28;20050;-69
2023/10/28 04:45:31;;;;;;;8.07;4.45;;;282.40;2278.40;;;;;;5051858;28;20025;-60
2023/10/28 04:47:56;;;;;;;6.80;5.32;;;282.40;2278.40;;;;;;5051772;28;20024;-74
2023/10/28 04:50:22;;;;;;;13.00;5.97;;;282.40;2278.40;;;;;;5051886;28;20082;-59
2023/10/28 04:52:48;;;;;;;8.45;5.78;;;282.40;2278.40;;;;;;5052197;28;20167;-74
2023/10/28 04:55:15;;;;;;;8.68;5.10;;;282.40;2278.40;;;;;;5051310;28;20029;-59
2023/10/28 04:57:41;;;;;;;11.95;4.90;;;282.50;2278.40;;;;;;5040513;28;20030;-58
2023/10/28 05:00:07;;;;;;;6.30;4.25;;;282.50;2278.40;;;;;;5025772;28;20484;-73
2023/10/28 05:02:34;;;;;;;9.02;6.20;;;307.20;2304.00;;;;;;5051564;28;20387;-74
2023/10/28 05:05:03;;;;;;;7.97;4.10;;;307.20;2304.00;;;;;;5051005;28;20025;-64
2023/10/28 05:07:29;;;;;;;8.63;4.40;;;307.20;2304.00;;;;;;5026302;28;20515;-59
2023/10/28 05:09:55;;;;;;;7.30;3.97;;;307.30;2304.00;;;;;;5050781;28;20420;-76
2023/10/28 05:12:21;;;;;;;6.55;4.03;;;307.30;2304.00;;;;;;5039316;28;20075;-59
2023/10/28 05:14:46;;;;;;;6.50;3.70;;;307.20;2304.00;;;;;;5043348;28;20104;-58
2023/10/28 05:17:12;;;;;;;7.13;3.40;;;282.50;2278.40;;;;;;5045221;28;20021;-65
2023/10/28 05:19:38;;;;;;;6.88;3.13;;;282.40;2278.40;;;;;;5043343;28;20127;-67
2023/10/28 05:22:04;;;;;;;8.23;3.22;;;282.30;2278.40;;;;;;5034567;28;20033;-59
2023/10/28 05:24:30;;;;;;;8.10;2.90;;;282.50;2278.40;;;;;;5033043;28;20017;-58
2023/10/28 05:26:57;;;;;;;5.18;2.97;;;307.20;2304.00;;;;;;5035558;28;20075;-58
2023/10/28 05:29:23;;;;;;;4.90;2.38;;;307.30;2304.00;;;;;;5041992;28;20196;-69
2023/10/28 05:31:48;;;;;;;5.43;2.45;;;307.40;2304.00;;;;;;5028482;28;20438;-59
2023/10/28 05:34:14;;;;;;;6.32;2.22;;;307.50;2304.00;;;;;;5025928;28;20021;-59
2023/10/28 05:36:40;;;;;;;7.53;3.05;;;307.60;2304.00;;;;;;5031856;28;20022;-60
2023/10/28 05:39:07;;;;;;;4.50;2.53;;;307.70;2304.00;;;;;;5041277;28;20082;-58
2023/10/28 05:41:33;;;;;;;6.38;2.40;;;307.80;2304.00;;;;;;5050316;28;20029;-58
2023/10/28 05:43:59;;;;;;;4.50;2.10;;;307.90;2304.00;;;;;;5037637;28;20029;-74
2023/10/28 05:46:24;;;;;;;6.40;2.83;;;308.00;2304.00;;;;;;5031354;28;20388;-76
2023/10/28 05:48:50;;;;;;;4.57;2.70;;;308.10;2304.00;;;;;;5031264;28;20025;-59
2023/10/28 05:51:17;;;;;;;5.25;2.50;;;308.10;2304.00;;;;;;5031563;28;20109;-61
2023/10/28 05:53:42;;;;;;;4.72;2.72;;;308.10;2304.00;;;;;;5037770;28;20028;-58
2023/10/28 05:56:08;;;;;;;4.80;2.53;;;332.80;2329.60;;;;;;5041641;28;20029;-72
2023/10/28 05:58:34;;;;;;;5.32;4.82;;;332.80;2329.60;;;;;;5033066;28;20026;-59
2023/10/28 06:01:01;;;;;;;6.93;3.17;;;332.80;2329.60;;;;;;5030723;28;20045;-71
2023/10/28 06:03:27;;;;;;;7.43;3.58;;;332.80;2329.60;;;;;;5035971;28;20056;-60
2023/10/28 06:05:53;;;;;;;8.25;4.07;;;332.90;2329.60;;;;;;5020812;28;20066;-59
2023/10/28 06:08:18;;;;;;;17.10;8.35;;;332.90;2329.60;;;;;;5030307;28;20017;-71
2023/10/28 06:10:50;;;;;;;12.43;8.35;;;333.10;2329.60;;;;;;5046167;28;20079;-78
2023/10/28 06:13:16;;;;;;;11.70;7.15;;;333.10;2329.60;;;;;;5042851;28;20109;-77
2023/10/28 06:15:42;;;;;;;11.70;5.03;;;333.10;2329.60;;;;;;5046890;28;20104;-74
2023/10/28 06:18:08;;;;;;;9.23;6.72;;;333.20;2329.60;;;;;;5035842;28;20033;-74
2023/10/28 06:20:34;;;;;;;9.25;5.63;;;333.40;2329.60;;;;;;5036361;28;20461;-73
2023/10/28 06:23:00;;;;;;;10.07;4.20;;;333.50;2329.60;;;;;;5030408;28;20037;-60
2023/10/28 06:25:25;;;;;;;5.90;4.03;;;333.70;2329.60;;;;;;5036960;28;20095;-76
2023/10/28 06:27:51;;;;;;;8.88;3.90;;;358.50;2329.60;;;;;;5031652;28;20470;-62
2023/10/28 06:30:17;;;;;;;8.85;4.50;;;358.60;2329.60;;;;;;5046134;28;20365;-74
2023/10/28 06:32:43;;;;;;;9.13;4.55;;;358.80;2329.60;;;;;;5050025;28;20036;-64
2023/10/28 06:35:08;;;;;;;7.70;4.43;;;359.00;2329.60;;;;;;5049945;28;20099;-63
2023/10/28 06:37:36;;;;;;;7.65;4.22;;;359.10;2329.60;;;;;;5049042;28;20104;-70
2023/10/28 06:40:03;;;;;;;12.27;4.57;;;359.20;2329.60;;;;;;5048718;28;20025;-68
2023/10/28 06:42:28;;;;;;;9.30;4.90;;;359.20;2329.60;;;;;;5049932;28;20067;-66
2023/10/28 06:44:54;;;;;;;8.35;6.00;;;359.20;2329.60;;;;;;5031850;28;20383;-62
2023/10/28 06:47:20;;;;;;;11.48;8.25;;;359.10;2329.60;;;;;;5044268;28;20040;-65
2023/10/28 06:49:46;;;;;;;10.63;4.57;;;359.00;2329.60;;;;;;5050159;28;20036;-69
2023/10/28 06:52:13;;;;;;;10.82;7.28;;;359.20;2329.60;;;;;;5049307;28;20494;-68
2023/10/28 06:54:38;;;;;;;11.02;5.68;;;359.20;2329.60;;;;;;5049675;28;20056;-68
2023/10/28 06:57:04;;;;;;;9.13;4.40;;;359.30;2329.60;;;;;;5049694;28;20118;-68
2023/10/28 06:59:31;;;;;;;10.60;6.43;;;359.30;2329.60;;;;;;5048552;28;20041;-63
2023/10/28 07:01:56;;;;;;;9.95;6.95;;;384.00;2329.60;;;;;;5049637;28;20108;-68
2023/10/28 07:04:22;;;;;;;17.80;11.48;;;384.30;2329.60;;;;;;5034961;28;20481;-63
2023/10/28 07:06:49;;;;;;;23.30;18.55;;;384.30;2329.60;;;;;;5049446;28;20037;-69
2023/10/28 07:09:17;;;;;;;39.55;25.15;;;384.40;2329.60;;;;;;5034130;28;20017;-63
2023/10/28 07:11:44;;;;;;;28.52;23.92;;;384.50;2329.60;;;;;;5031441;28;20039;-63
2023/10/28 07:14:10;;;;;;;36.35;24.45;;;384.50;2329.60;;;;;;5032405;28;20025;-64
2023/10/28 07:16:35;;;;;;;28.15;21.27;;;384.60;2329.60;;;;;;5034183;28;20032;-62
2023/10/28 07:19:01;;;;;;;25.33;20.30;;;384.30;2329.60;;;;;;5040540;28;20080;-68
2023/10/28 07:21:27;;;;;;;26.20;19.10;;;384.30;2329.60;;;;;;5027664;28;20025;-64
2023/10/28 07:23:52;;;;;;;18.30;14.27;;;384.30;2329.60;;;;;;5037886;28;20127;-70
2023/10/28 07:26:18;;;;;;;28.10;18.52;;;384.40;2329.60;;;;;;5038866;28;20036;-63
2023/10/28 07:28:45;;;;;;;27.80;20.60;;;384.50;2329.60;;;;;;5045632;28;20071;-69
2023/10/28 07:31:10;;;;;;;32.17;21.13;;;384.60;2329.60;;;;;;5047019;28;20029;-68
2023/10/28 07:33:37;;;;;;;24.85;19.08;;;384.70;2329.60;;;;;;5046217;28;20076;-69
2023/10/28 07:36:04;;;;;;;26.75;17.98;;;384.90;2329.60;;;;;;5047685;28;20017;-69
2023/10/28 07:38:30;;;;;;;28.15;17.30;;;409.60;2355.20;;;;;;5046789;28;20107;-68
2023/10/28 07:40:57;;;;;;;24.95;19.27;;;409.60;2355.20;;;;;;5047620;28;20025;-69
2023/10/28 07:43:23;;;;;;;27.33;20.45;;;384.90;2329.60;;;;;;5045989;28;20021;-65
2023/10/28 07:45:48;;;;;;;31.75;21.50;;;409.80;2355.20;;;;;;5040960;28;20225;-65
2023/10/28 07:48:14;;;;;;;33.42;22.02;;;410.20;2355.20;;;;;;5046505;28;20380;-63
2023/10/28 07:50:42;;;;;;;36.15;22.77;;;410.20;2355.20;;;;;;5044876;28;20163;-64
2023/10/28 07:53:08;;;;;;;29.50;21.15;;;410.50;2355.20;;;;;;5032587;28;20037;-67
2023/10/28 07:55:34;;;;;;;26.48;18.45;;;410.50;2355.20;;;;;;5029230;28;20356;-70
2023/10/28 07:58:00;;;;;;;25.65;16.90;;;410.30;2355.20;;;;;;5022159;28;20067;-70
2023/10/28 08:00:26;;;;;;;19.08;11.65;;;410.20;2355.20;;;;;;5031214;28;20037;-67
2023/10/28 08:02:53;;;;;;;26.83;18.05;;;410.00;2355.20;;;;;;5028098;28;20025;-64
2023/10/28 08:05:19;;;;;;;34.78;22.48;;;410.10;2355.20;;;;;;5037169;28;20439;-66
2023/10/28 08:07:47;;;;;;;28.05;14.40;;;410.20;2355.20;;;;;;5034492;28;20046;-64
2023/10/28 08:10:14;;;;;;;29.08;22.55;;;410.30;2355.20;;;;;;5039026;28;20030;-67
2023/10/28 08:12:39;;;;;;;34.80;24.02;;;410.10;2355.20;;;;;;5031669;28;20116;-64
2023/10/28 08:15:07;;;;;;;34.67;24.60;;;410.00;2355.20;;;;;;5032943;28;20112;-69
2023/10/28 08:17:34;;;;;;;30.55;25.70;;;410.10;2355.20;;;;;;5032128;28;20040;-68
2023/10/28 08:20:00;;;;;;;39.22;30.15;;;410.30;2355.20;;;;;;5045409;28;20052;-67
2023/10/28 08:22:26;;;;;;;42.60;35.78;;;410.30;2355.20;;;;;;5047422;28;20087;-68
2023/10/28 08:24:51;;;;;;;29.67;24.42;;;410.20;2355.20;;;;;;5048487;28;20432;-67
2023/10/28 08:27:17;;;;;;;16.45;12.50;;;410.20;2355.20;;;;;;5074246;28;20041;-67
2023/10/28 08:29:46;;;;;;;15.32;11.20;;;410.30;2355.20;;;;;;5073572;28;20025;-68
2023/10/28 08:32:12;;;;;;;14.32;10.43;;;410.30;2355.20;;;;;;5062002;28;20018;-68
2023/10/28 08:34:38;;;;;;;17.67;9.50;;;410.50;2355.20;;;;;;5067949;28;20071;-69
2023/10/28 08:37:05;;;;;;;11.63;6.65;;;410.50;2355.20;;;;;;5078174;28;20017;-69
2023/10/28 08:39:31;;;;;;;8.63;5.32;;;435.50;2355.20;;;;;;5077611;28;20020;-68
2023/10/28 08:42:04;;;;;;;20.23;13.27;;;435.90;2355.20;;;;;;5077758;28;20037;-68
2023/10/28 08:44:33;;;;;;;;;;;461.00;2380.80;;;;;;5077394;28;20014;-68
2023/10/28 08:47:00;;;;;;;30.17;21.95;;;512.80;2380.80;;;;;;5077483;28;19915;-69
2023/10/28 08:49:27;;;;;;;30.95;26.20;;;563.40;2432.00;;;;;;5077115;28;20044;-69
2023/10/28 08:52:02;;;;;;;42.80;34.10;;;614.70;2432.00;;;;;;5076686;28;20025;-68
2023/10/28 08:54:28;;;;;;;35.05;29.30;;;640.10;2432.00;;;;;;5077502;28;20017;-69
2023/10/28 08:56:58;;;;;;;34.10;30.67;;;666.40;2304.00;;;;;;5076600;28;20077;-69
2023/10/28 08:59:26;;;;;;;29.10;23.27;;;640.40;2304.00;;;;;;5077192;28;20025;-69
2023/10/28 09:01:52;;;;;;;17.58;15.13;;;589.40;2432.00;;;;;;5076222;28;20035;-69
2023/10/28 09:04:21;;;;;;;34.30;23.55;;;563.60;2432.00;;;;;;5077092;28;20012;-68
2023/10/28 09:06:48;;;;;;;11.30;6.85;;;512.80;2380.80;;;;;;5076503;28;20017;-68
2023/10/28 09:09:17;;;;;;;14.55;8.50;;;537.70;2406.40;;;;;;5067480;28;20013;-68
2023/10/28 09:11:42;;;;;;;22.95;14.75;;;512.90;2380.80;;;;;;5062669;28;20063;-69
2023/10/28 09:14:08;;;;;;;13.70;7.18;;;512.30;2380.80;;;;;;5077088;28;20025;-69
2023/10/28 09:16:35;;;;;;;11.68;5.65;;;512.50;2380.80;;;;;;5076947;28;20033;-68
2023/10/28 09:19:03;;;;;;;9.50;4.30;;;512.40;2380.80;;;;;;5076567;28;20088;-68
2023/10/28 09:21:30;;;;;;;10.45;4.53;;;512.30;2380.80;;;;;;5076961;28;20017;-67
2023/10/28 09:24:03;;;;;;;12.77;5.93;;;512.20;2380.80;;;;;;5076967;28;20025;-69
2023/10/28 09:26:29;;;;;;;8.60;4.35;;;512.20;2380.80;;;;;;5076325;28;20033;-69
2023/10/28 09:28:58;;;;;;;10.93;3.47;;;512.00;2380.80;;;;;;5076790;28;20021;-69
2023/10/28 09:31:28;;;;;;;6.88;3.80;;;487.30;2380.80;;;;;;5076590;28;20088;-68
2023/10/28 09:33:57;;;;;;;7.38;3.70;;;487.20;2380.80;;;;;;5076246;28;20085;-69
2023/10/28 09:36:23;;;;;;;7.20;4.43;;;487.10;2380.80;;;;;;5076454;28;20032;-68
2023/10/28 09:38:50;;;;;;;8.73;5.13;;;486.90;2380.80;;;;;;5076512;28;20025;-68
2023/10/28 09:41:19;;;;;;;9.73;3.90;;;486.80;2380.80;;;;;;5076133;28;20021;-70
2023/10/28 09:43:45;;;;;;;35.83;28.77;;;486.70;2380.80;;;;;;5076741;28;20017;-69
2023/10/28 09:46:11;;;;;;;224.07;149.00;;;486.50;2380.80;;;;;;5072048;28;20032;-69
2023/10/28 09:48:45;;;;;;;373.42;252.73;;;486.70;2380.80;;;;;;5071049;28;20033;-66
2023/10/28 09:51:13;;;;;;;22.55;20.15;;;486.50;2380.80;;;;;;5051106;28;20052;-67
2023/10/28 09:53:43;;;;;;;9.98;8.88;;;486.50;2380.80;;;;;;5051870;28;20032;-67
2023/10/28 09:56:12;;;;;;;7.63;5.18;;;486.40;2380.80;;;;;;5055084;28;20076;-66
2023/10/28 09:58:50;;;;;;;9.80;3.88;;;461.60;2380.80;;;;;;5054024;28;20071;-65
2023/10/28 10:05:00;;;;;;;8.27;5.10;;;461.40;2380.80;;;;;;5053945;28;20082;-66
2023/10/28 10:07:27;;;;;;;8.63;4.47;;;461.30;2380.80;;;;;;5054030;28;20044;-66
2023/10/28 10:09:53;;;;;;;13.68;10.05;;;461.20;2380.80;;;;;;5051008;28;20151;-65
2023/10/28 10:12:29;;;;;;;11.77;10.15;;;461.20;2380.80;;;;;;5050384;28;20053;-65
2023/10/28 10:14:55;;;;;;;15.77;12.93;;;461.30;2380.80;;;;;;5050293;28;20378;-66
2023/10/28 10:17:38;;;;;;;11.88;9.13;;;461.20;2380.80;;;;;;5049634;28;20021;-66
2023/10/28 10:20:06;;;;;;;14.05;12.57;;;461.10;2380.80;;;;;;5049742;28;20053;-67
2023/10/28 10:22:35;;;;;;;18.00;16.10;;;460.90;2380.80;;;;;;5046511;28;20041;-65
2023/10/28 10:25:01;;;;;;;45.13;33.17;;;460.90;2380.80;;;;;;5031247;28;20422;-65
2023/10/28 10:27:53;;;;;;;19.08;15.52;;;460.80;2380.80;;;;;;5047173;28;20086;-65
2023/10/28 10:30:19;;;;;;;15.95;11.40;;;436.10;2355.20;;;;;;5049039;28;20506;-65
2023/10/28 10:32:50;;;;;;;15.38;12.88;;;436.00;2355.20;;;;;;5050444;28;20386;-65
2023/10/28 10:35:31;;;;;;;15.98;10.63;;;436.10;2355.20;;;;;;5048929;28;20025;-65
2023/10/28 10:38:10;;;;;;;15.77;11.13;;;436.00;2355.20;;;;;;5049817;28;20032;-68
2023/10/28 10:40:50;;;;;;;22.90;20.45;;;436.00;2355.20;;;;;;5049909;28;20032;-66
2023/10/28 10:43:20;;;;;;;41.45;34.50;;;435.90;2355.20;;;;;;5024287;28;20020;-65
2023/10/28 10:45:47;;;;;;;32.67;26.40;;;435.90;2355.20;;;;;;5049411;28;20039;-65
2023/10/28 10:48:13;;;;;;;13.27;7.22;;;435.90;2355.20;;;;;;5049478;28;20039;-69
2023/10/28 10:50:40;;;;;;;14.30;10.77;;;435.90;2355.20;;;;;;5049635;28;20422;-66
2023/10/28 10:53:06;;;;;;;14.10;10.30;;;435.90;2355.20;;;;;;5040859;28;20028;-65
2023/10/28 10:55:32;;;;;;;32.33;28.90;;;435.80;2355.20;;;;;;5027207;28;20076;-65
2023/10/28 10:57:58;;;;;;;25.35;21.17;;;435.90;2355.20;;;;;;5033176;28;20025;-65
2023/10/28 11:00:25;;;;;;;21.30;17.88;;;436.00;2355.20;;;;;;5044997;28;20029;-66
2023/10/28 11:02:53;;;;;;;74.50;59.05;;;436.00;2355.20;;;;;;5048960;28;20378;-65
2023/10/28 11:05:19;;;;;;;85.95;64.15;;;460.80;2380.80;;;;;;5049224;28;20490;-65
2023/10/28 11:07:45;;;;;;;92.38;66.05;;;460.90;2380.80;;;;;;5049219;28;20032;-69
2023/10/28 11:10:11;;;;;;;81.80;60.70;;;461.00;2380.80;;;;;;5047471;28;20020;-65
2023/10/28 11:12:39;;;;;;;37.95;26.35;;;461.10;2380.80;;;;;;5048906;28;20111;-65
2023/10/28 11:15:06;;;;;;;13.90;10.52;;;461.30;2380.80;;;;;;5048063;28;20490;-66
2023/10/28 11:17:32;;;;;;;7.75;3.75;;;461.40;2380.80;;;;;;5048879;28;20044;-65
2023/10/28 11:20:00;;;;;;;10.90;4.53;;;461.50;2380.80;;;;;;5048638;28;20128;-66
2023/10/28 11:22:28;;;;;;;136.60;93.35;;;461.50;2380.80;;;;;;5048550;28;20035;-65
2023/10/28 11:24:57;;;;;;;59.17;46.42;;;461.50;2380.80;;;;;;5047911;28;20029;-65
2023/10/28 11:27:27;;;;;;;47.03;40.50;;;461.50;2380.80;;;;;;5027360;28;20040;-66
2023/10/28 11:29:56;;;;;;;62.53;55.67;;;461.60;2380.80;;;;;;5040901;28;20118;-65
2023/10/28 11:32:22;;;;;;;61.88;55.15;;;461.70;2380.80;;;;;;5047758;28;20029;-65
2023/10/28 11:34:49;;;;;;;47.72;36.35;;;486.40;2380.80;;;;;;5049009;28;20056;-65
2023/10/28 11:37:15;;;;;;;86.72;63.72;;;486.40;2380.80;;;;;;5048545;28;20021;-66
2023/10/28 11:39:44;;;;;;;37.33;23.05;;;486.50;2380.80;;;;;;5048276;28;20020;-66
2023/10/28 11:42:14;;;;;;;32.70;21.73;;;486.70;2380.80;;;;;;5048584;28;20474;-65
2023/10/28 11:44:41;;;;;;;89.15;59.85;;;486.70;2380.80;;;;;;5048332;28;20466;-66
2023/10/28 11:47:08;;;;;;;74.13;57.05;;;486.80;2380.80;;;;;;5048526;28;20039;-65
2023/10/28 11:49:34;;;;;;;67.63;44.83;;;486.80;2380.80;;;;;;5047961;28;20035;-65
2023/10/28 11:52:00;;;;;;;50.00;37.45;;;486.80;2380.80;;;;;;5048450;28;20059;-67
2023/10/28 11:54:26;;;;;;;29.42;20.70;;;487.00;2380.80;;;;;;5048390;28;20021;-66
2023/10/28 11:56:52;;;;;;;19.70;16.10;;;487.30;2380.80;;;;;;5048863;28;20021;-67
2023/10/28 11:59:18;;;;;;;13.30;8.95;;;512.20;2380.80;;;;;;5025397;28;20600;-66
2023/10/28 12:01:43;;;;;;;16.25;7.68;;;512.20;2380.80;;;;;;5039715;28;20417;-65
2023/10/28 12:04:10;;;;;;;14.85;9.65;;;512.10;2380.80;;;;;;5041646;28;20042;-66
2023/10/28 12:06:36;;;;;;;41.83;33.67;;;487.20;2380.80;;;;;;5041848;28;20037;-66
2023/10/28 12:09:11;;;;;;;36.28;28.75;;;486.80;2380.80;;;;;;5052073;28;20393;-66
2023/10/28 12:11:37;;;;;;;39.75;28.60;;;486.70;2380.80;;;;;;5038657;28;20026;-68
2023/10/28 12:14:05;;;;;;;17.63;10.68;;;486.50;2380.80;;;;;;5046321;28;20028;-65